createdAt,value
2019-02-03T00:01:58.065Z,97333.00
2019-02-03T00:04:28.293Z,97318.00
2019-02-03T00:07:03.489Z,97323.00
2019-02-03T00:09:29.553Z,97325.00
2019-02-03T00:11:59.455Z,97322.00
2019-02-03T00:14:29.384Z,97313.00
2019-02-03T00:16:59.698Z,97317.00
2019-02-03T00:19:30.857Z,97316.00
2019-02-03T00:22:00.575Z,97335.00
2019-02-03T00:24:30.539Z,97336.00
2019-02-03T00:27:01.488Z,97330.00
2019-02-03T00:29:31.344Z,97343.00
2019-02-03T00:32:01.142Z,97326.00
2019-02-03T00:34:31.049Z,97330.00
2019-02-03T00:37:00.938Z,97349.00
2019-02-03T00:39:30.841Z,97340.00
2019-02-03T00:42:01.339Z,97338.00
2019-02-03T00:44:31.531Z,97327.00
2019-02-03T00:47:01.721Z,97336.00
2019-02-03T00:49:31.794Z,97353.00
2019-02-03T00:52:01.773Z,97349.00
2019-02-03T00:54:32.199Z,97350.00
2019-02-03T00:57:03.262Z,97352.00
2019-02-03T00:59:34.583Z,97337.00
2019-02-03T01:02:04.692Z,97344.00
2019-02-03T01:04:34.879Z,97323.00
2019-02-03T01:07:05.662Z,97308.00
2019-02-03T01:09:35.660Z,97288.00
2019-02-03T01:12:05.728Z,97280.00
2019-02-03T01:14:35.895Z,97289.00
2019-02-03T01:17:06.390Z,97310.00
2019-02-03T01:19:36.860Z,97327.00
2019-02-03T01:22:07.037Z,97341.00
2019-02-03T01:24:36.850Z,97352.00
2019-02-03T01:27:06.978Z,97375.00
2019-02-03T01:29:37.090Z,97378.00
2019-02-03T01:32:07.184Z,97366.00
2019-02-03T01:34:37.748Z,97355.00
2019-02-03T01:37:07.690Z,97373.00
2019-02-03T01:39:37.573Z,97378.00
2019-02-03T01:42:08.838Z,97384.00
2019-02-03T01:44:38.721Z,97368.00
2019-02-03T01:47:08.540Z,97382.00
2019-02-03T01:49:38.478Z,97374.00
2019-02-03T01:52:08.427Z,97374.00
2019-02-03T01:54:38.178Z,97393.00
2019-02-03T01:57:08.124Z,97386.00
2019-02-03T01:59:38.016Z,97391.00
2019-02-03T02:02:07.871Z,97384.00
2019-02-03T02:04:37.634Z,97388.00
2019-02-03T02:07:07.873Z,97381.00
2019-02-03T02:09:37.669Z,97395.00
2019-02-03T02:12:09.218Z,97384.00
2019-02-03T02:14:39.318Z,97398.00
2019-02-03T02:17:09.836Z,97386.00
2019-02-03T02:19:39.702Z,97388.00
2019-02-03T02:22:09.717Z,97388.00
2019-02-03T02:24:39.853Z,97373.00
2019-02-03T02:27:09.867Z,97366.00
2019-02-03T02:29:39.891Z,97378.00
2019-02-03T02:32:09.648Z,97385.00
2019-02-03T02:34:39.431Z,97394.00
2019-02-03T02:37:09.318Z,97389.00
2019-02-03T02:39:39.345Z,97393.00
2019-02-03T02:42:09.124Z,97393.00
2019-02-03T02:44:38.929Z,97400.00
2019-02-03T02:47:08.996Z,97403.00
2019-02-03T02:49:38.877Z,97401.00
2019-02-03T02:52:08.584Z,97406.00
2019-02-03T02:54:38.519Z,97398.00
2019-02-03T02:57:08.323Z,97394.00
2019-02-03T02:59:38.268Z,97386.00
2019-02-03T03:02:08.257Z,97385.00
2019-02-03T03:04:38.717Z,97394.00
2019-02-03T03:07:08.523Z,97394.00
2019-02-03T03:09:38.235Z,97397.00
2019-02-03T03:12:08.117Z,97414.00
2019-02-03T03:14:37.955Z,97411.00
2019-02-03T03:17:07.740Z,97415.00
2019-02-03T03:19:38.590Z,97431.00
2019-02-03T03:22:08.275Z,97433.00
2019-02-03T03:24:39.727Z,97434.00
2019-02-03T03:27:09.358Z,97442.00
2019-02-03T03:29:40.619Z,97453.00
2019-02-03T03:32:11.957Z,97455.00
2019-02-03T03:34:41.810Z,97458.00
2019-02-03T03:37:11.593Z,97466.00
2019-02-03T03:39:41.629Z,97469.00
2019-02-03T03:42:11.513Z,97487.00
2019-02-03T03:44:41.529Z,97483.00
2019-02-03T03:47:11.560Z,97474.00
2019-02-03T03:49:41.411Z,97477.00
2019-02-03T03:52:11.277Z,97470.00
2019-02-03T03:54:42.726Z,97472.00
2019-02-03T03:57:14.022Z,97468.00
2019-02-03T03:59:43.832Z,97475.00
2019-02-03T04:02:13.501Z,97474.00
2019-02-03T04:04:43.723Z,97491.00
2019-02-03T04:07:13.623Z,97483.00
2019-02-03T04:09:43.545Z,97481.00
2019-02-03T04:12:13.377Z,97495.00
2019-02-03T04:14:43.392Z,97492.00
2019-02-03T04:17:13.183Z,97488.00
2019-02-03T04:19:42.951Z,97490.00
2019-02-03T04:22:12.923Z,97503.00
2019-02-03T04:24:42.741Z,97497.00
2019-02-03T04:27:13.010Z,97499.00
2019-02-03T04:29:42.772Z,97509.00
2019-02-03T04:32:13.864Z,97510.00
2019-02-03T04:34:43.771Z,97516.00
2019-02-03T04:37:13.566Z,97528.00
2019-02-03T04:39:43.407Z,97534.00
2019-02-03T04:42:13.302Z,97541.00
2019-02-03T04:44:45.504Z,97537.00
2019-02-03T04:47:16.118Z,97552.00
2019-02-03T04:49:45.918Z,97546.00
2019-02-03T04:52:15.735Z,97537.00
2019-02-03T04:54:46.846Z,97537.00
2019-02-03T04:57:16.783Z,97544.00
2019-02-03T04:59:46.608Z,97539.00
2019-02-03T05:02:16.478Z,97535.00
2019-02-03T05:04:49.699Z,97548.00
2019-02-03T05:07:19.826Z,97557.00
2019-02-03T05:09:49.788Z,97554.00
2019-02-03T05:12:19.892Z,97546.00
2019-02-03T05:14:50.701Z,97562.00
2019-02-03T05:17:21.311Z,97561.00
2019-02-03T05:19:51.274Z,97566.00
2019-02-03T05:22:21.236Z,97563.00
2019-02-03T05:24:51.407Z,97571.00
2019-02-03T05:27:21.378Z,97575.00
2019-02-03T05:29:51.363Z,97588.00
2019-02-03T05:32:21.122Z,97587.00
2019-02-03T05:34:51.486Z,97594.00
2019-02-03T05:37:21.561Z,97603.00
2019-02-03T05:39:51.785Z,97612.00
2019-02-03T05:42:21.761Z,97608.00
2019-02-03T05:44:51.585Z,97625.00
2019-02-03T05:47:21.547Z,97623.00
2019-02-03T05:49:51.361Z,97622.00
2019-02-03T05:52:21.659Z,97626.00
2019-02-03T05:54:51.472Z,97631.00
2019-02-03T05:57:21.548Z,97640.00
2019-02-03T05:59:51.419Z,97643.00
2019-02-03T06:02:21.231Z,97640.00
2019-02-03T06:04:51.149Z,97653.00
2019-02-03T06:07:21.373Z,97663.00
2019-02-03T06:09:51.310Z,97662.00
2019-02-03T06:12:21.341Z,97672.00
2019-02-03T06:14:51.419Z,97675.00
2019-02-03T06:17:21.314Z,97673.00
2019-02-03T06:19:52.991Z,97679.00
2019-02-03T06:22:22.596Z,97671.00
2019-02-03T06:24:53.861Z,97682.00
2019-02-03T06:27:24.210Z,97690.00
2019-02-03T06:29:54.072Z,97691.00
2019-02-03T06:32:24.352Z,97699.00
2019-02-03T06:34:54.347Z,97705.00
2019-02-03T06:37:24.378Z,97715.00
2019-02-03T06:39:54.179Z,97712.00
2019-02-03T06:42:24.243Z,97710.00
2019-02-03T06:44:57.236Z,97714.00
2019-02-03T06:47:27.959Z,97714.00
2019-02-03T06:49:57.838Z,97726.00
2019-02-03T06:52:27.699Z,97739.00
2019-02-03T06:54:57.511Z,97732.00
2019-02-03T06:57:27.982Z,97753.00
2019-02-03T06:59:57.806Z,97760.00
2019-02-03T07:02:28.005Z,97779.00
2019-02-03T07:04:57.967Z,97775.00
2019-02-03T07:07:27.523Z,97777.00
2019-02-03T07:10:00.964Z,97785.00
2019-02-03T07:12:30.648Z,97781.00
2019-02-03T07:15:00.692Z,97792.00
2019-02-03T07:17:30.459Z,97794.00
2019-02-03T07:20:00.480Z,97794.00
2019-02-03T07:22:30.754Z,97788.00
2019-02-03T07:25:00.920Z,97791.00
2019-02-03T07:27:30.870Z,97795.00
2019-02-03T07:30:01.129Z,97803.00
2019-02-03T07:32:32.145Z,97810.00
2019-02-03T07:35:02.281Z,97803.00
2019-02-03T07:37:32.344Z,97806.00
2019-02-03T07:40:12.088Z,97812.00
2019-02-03T07:42:36.405Z,97816.00
2019-02-03T07:45:09.230Z,97833.00
2019-02-03T07:47:39.797Z,97839.00
2019-02-03T07:50:09.975Z,97841.00
2019-02-03T07:52:40.718Z,97855.00
2019-02-03T07:55:10.780Z,97864.00
2019-02-03T07:57:41.096Z,97865.00
2019-02-03T08:00:11.540Z,97879.00
2019-02-03T08:02:41.952Z,97879.00
2019-02-03T08:05:11.567Z,97871.00
2019-02-03T08:07:41.714Z,97885.00
2019-02-03T08:10:23.838Z,97888.00
2019-02-03T08:12:43.559Z,97895.00
2019-02-03T08:15:14.090Z,97901.00
2019-02-03T08:17:45.121Z,97906.00
2019-02-03T08:20:15.765Z,97906.00
2019-02-03T08:22:45.786Z,97915.00
2019-02-03T08:25:15.700Z,97913.00
2019-02-03T08:27:46.302Z,97914.00
2019-02-03T08:30:17.996Z,97918.00
2019-02-03T08:32:48.303Z,97927.00
2019-02-03T08:35:20.007Z,97937.00
2019-02-03T08:37:49.620Z,97919.00
2019-02-03T08:40:21.042Z,97929.00
2019-02-03T08:42:51.090Z,97927.00
2019-02-03T08:45:21.472Z,97928.00
2019-02-03T08:47:51.458Z,97933.00
2019-02-03T08:50:21.611Z,97936.00
2019-02-03T08:52:52.226Z,97935.00
2019-02-03T08:55:22.193Z,97942.00
2019-02-03T08:57:52.297Z,97936.00
2019-02-03T09:00:25.339Z,97945.00
2019-02-03T09:02:55.328Z,97947.00
2019-02-03T09:05:25.330Z,97953.00
2019-02-03T09:07:55.379Z,97960.00
2019-02-03T09:10:25.959Z,97960.00
2019-02-03T09:12:56.118Z,97957.00
2019-02-03T09:15:26.606Z,97961.00
2019-02-03T09:17:56.320Z,97967.00
2019-02-03T09:20:31.049Z,97970.00
2019-02-03T09:23:01.184Z,97982.00
2019-02-03T09:25:31.182Z,97977.00
2019-02-03T09:28:01.176Z,97990.00
2019-02-03T09:30:32.577Z,97993.00
2019-02-03T09:33:02.699Z,98006.00
2019-02-03T09:35:32.878Z,98001.00
2019-02-03T09:38:04.016Z,98010.00
2019-02-03T09:40:34.158Z,98012.00
2019-02-03T09:43:05.544Z,98017.00
2019-02-03T09:45:35.666Z,98012.00
2019-02-03T09:48:07.126Z,98026.00
2019-02-03T09:50:37.244Z,98032.00
2019-02-03T09:53:07.550Z,98040.00
2019-02-03T09:55:37.670Z,98035.00
2019-02-03T09:58:07.794Z,98046.00
2019-02-03T10:00:37.694Z,98048.00
2019-02-03T10:03:09.075Z,98055.00
2019-02-03T10:05:41.115Z,98057.00
2019-02-03T10:08:11.943Z,98067.00
2019-02-03T10:10:42.415Z,98066.00
2019-02-03T10:13:12.382Z,98079.00
2019-02-03T10:15:42.842Z,98062.00
2019-02-03T10:18:14.725Z,98072.00
2019-02-03T10:20:44.582Z,98089.00
2019-02-03T10:23:15.076Z,98079.00
2019-02-03T10:25:44.942Z,98077.00
2019-02-03T10:28:14.866Z,98095.00
2019-02-03T10:30:44.555Z,98099.00
2019-02-03T10:33:14.211Z,98100.00
2019-02-03T10:35:44.076Z,98103.00
2019-02-03T10:38:14.231Z,98101.00
2019-02-03T10:40:43.846Z,98099.00
2019-02-03T10:43:21.032Z,98102.00
2019-02-03T10:45:51.110Z,98098.00
2019-02-03T10:48:21.237Z,98102.00
2019-02-03T10:50:51.343Z,98100.00
2019-02-03T10:53:22.635Z,98109.00
2019-02-03T10:55:52.296Z,98107.00
2019-02-03T10:58:22.136Z,98111.00
2019-02-03T11:00:54.958Z,98119.00
2019-02-03T11:03:23.281Z,98117.00
2019-02-03T11:05:54.613Z,98128.00
2019-02-03T11:08:24.244Z,98130.00
2019-02-03T11:10:53.864Z,98131.00
2019-02-03T11:13:23.569Z,98135.00
2019-02-03T11:15:53.407Z,98143.00
2019-02-03T11:18:23.882Z,98136.00
2019-02-03T11:20:53.625Z,98150.00
2019-02-03T11:23:23.945Z,98143.00
2019-02-03T11:25:53.593Z,98157.00
2019-02-03T11:28:23.464Z,98157.00
2019-02-03T11:30:53.176Z,98152.00
2019-02-03T11:33:23.658Z,98160.00
2019-02-03T11:35:53.519Z,98163.00
2019-02-03T11:38:23.687Z,98173.00
2019-02-03T11:45:31.589Z,98174.00
2019-02-03T11:48:01.634Z,98187.00
2019-02-03T11:50:34.687Z,98190.00
2019-02-03T11:53:04.620Z,98177.00
2019-02-03T11:55:34.514Z,98185.00
2019-02-03T11:58:04.545Z,98195.00
2019-02-03T12:00:34.273Z,98186.00
2019-02-03T12:03:04.362Z,98186.00
2019-02-03T12:05:34.207Z,98175.00
2019-02-03T12:08:06.567Z,98184.00
2019-02-03T12:10:36.810Z,98173.00
2019-02-03T12:13:09.444Z,98180.00
2019-02-03T12:15:39.700Z,98175.00
2019-02-03T12:18:09.533Z,98176.00
2019-02-03T12:20:39.429Z,98173.00
2019-02-03T12:23:10.905Z,98180.00
2019-02-03T12:25:41.914Z,98195.00
2019-02-03T12:28:11.616Z,98180.00
2019-02-03T12:30:41.273Z,98193.00
2019-02-03T12:33:11.318Z,98200.00
2019-02-03T12:35:41.051Z,98191.00
2019-02-03T12:38:11.085Z,98202.00
2019-02-03T12:40:42.148Z,98213.00
2019-02-03T12:43:12.003Z,98206.00
2019-02-03T12:45:42.040Z,98209.00
2019-02-03T12:48:11.948Z,98205.00
2019-02-03T12:50:41.978Z,98205.00
2019-02-03T12:53:12.098Z,98209.00
2019-02-03T12:55:44.716Z,98208.00
2019-02-03T12:58:13.559Z,98210.00
2019-02-03T13:00:43.483Z,98218.00
2019-02-03T13:03:13.127Z,98214.00
2019-02-03T13:05:42.995Z,98230.00
2019-02-03T13:08:12.711Z,98226.00
2019-02-03T13:10:42.740Z,98225.00
2019-02-03T13:13:12.553Z,98232.00
2019-02-03T13:15:47.556Z,98240.00
2019-02-03T13:18:17.547Z,98245.00
2019-02-03T13:20:48.071Z,98239.00
2019-02-03T13:23:17.970Z,98245.00
2019-02-03T13:25:47.743Z,98251.00
2019-02-03T13:28:17.475Z,98262.00
2019-02-03T13:30:49.299Z,98270.00
2019-02-03T13:33:21.850Z,98272.00
2019-02-03T13:35:50.295Z,98273.00
2019-02-03T13:38:20.472Z,98283.00
2019-02-03T13:40:50.246Z,98289.00
2019-02-03T13:43:20.117Z,98301.00
2019-02-03T13:45:49.983Z,98299.00
2019-02-03T13:48:19.671Z,98300.00
2019-02-03T13:50:49.432Z,98309.00
2019-02-03T13:53:19.720Z,98313.00
2019-02-03T13:55:49.860Z,98317.00
2019-02-03T13:58:20.955Z,98325.00
2019-02-03T14:00:50.826Z,98331.00
2019-02-03T14:03:20.586Z,98330.00
2019-02-03T14:05:50.423Z,98335.00
2019-02-03T14:08:20.302Z,98348.00
2019-02-03T14:10:50.452Z,98341.00
2019-02-03T14:13:20.290Z,98352.00
2019-02-03T14:15:50.184Z,98362.00
2019-02-03T14:18:20.199Z,98369.00
2019-02-03T14:20:49.979Z,98378.00
2019-02-03T14:23:19.863Z,98380.00
2019-02-03T14:25:49.834Z,98377.00
2019-02-03T14:28:19.882Z,98387.00
2019-02-03T14:30:51.350Z,98389.00
2019-02-03T14:33:21.145Z,98381.00
2019-02-03T14:35:50.931Z,98402.00
2019-02-03T14:38:20.467Z,98407.00
2019-02-03T14:40:50.052Z,98405.00
2019-02-03T14:43:21.063Z,98402.00
2019-02-03T14:45:51.136Z,98420.00
2019-02-03T14:48:21.377Z,98426.00
2019-02-03T14:50:51.533Z,98433.00
2019-02-03T14:53:22.693Z,98443.00
2019-02-03T14:55:52.523Z,98436.00
2019-02-03T14:58:22.842Z,98445.00
2019-02-03T15:00:55.127Z,98445.00
2019-02-03T15:03:26.969Z,98446.00
2019-02-03T15:05:56.543Z,98458.00
2019-02-03T15:08:26.592Z,98446.00
2019-02-03T15:10:57.630Z,98451.00
2019-02-03T15:13:27.737Z,98466.00
2019-02-03T15:16:03.582Z,98473.00
2019-02-03T15:18:33.351Z,98471.00
2019-02-03T15:21:03.318Z,98477.00
2019-02-03T15:23:34.492Z,98493.00
2019-02-03T15:26:04.093Z,98499.00
2019-02-03T15:28:34.659Z,98496.00
2019-02-03T15:31:04.951Z,98504.00
2019-02-03T15:33:35.634Z,98514.00
2019-02-03T15:36:05.912Z,98516.00
2019-02-03T15:38:36.020Z,98519.00
2019-02-03T15:41:06.363Z,98530.00
2019-02-03T15:43:36.365Z,98530.00
2019-02-03T15:46:07.987Z,98539.00
2019-02-03T15:48:38.143Z,98543.00
2019-02-03T15:51:08.059Z,98546.00
2019-02-03T15:53:37.954Z,98546.00
2019-02-03T15:56:07.661Z,98553.00
2019-02-03T15:58:37.424Z,98549.00
2019-02-03T16:01:09.971Z,98562.00
2019-02-03T16:03:40.082Z,98573.00
2019-02-03T16:06:09.906Z,98567.00
2019-02-03T16:08:39.820Z,98576.00
2019-02-03T16:11:09.532Z,98587.00
2019-02-03T16:13:40.008Z,98587.00
2019-02-03T16:16:10.490Z,98600.00
2019-02-03T16:18:40.439Z,98606.00
2019-02-03T16:21:10.126Z,98601.00
2019-02-03T16:23:39.967Z,98614.00
2019-02-03T16:26:09.848Z,98621.00
2019-02-03T16:28:39.717Z,98618.00
2019-02-03T16:31:09.475Z,98633.00
2019-02-03T16:33:40.685Z,98622.00
2019-02-03T16:36:10.690Z,98644.00
2019-02-03T16:38:40.801Z,98646.00
2019-02-03T16:41:11.572Z,98644.00
2019-02-03T16:43:48.580Z,98650.00
2019-02-03T16:46:13.675Z,98657.00
2019-02-03T16:48:43.867Z,98651.00
2019-02-03T16:51:14.887Z,98664.00
2019-02-03T16:53:45.450Z,98665.00
2019-02-03T16:56:15.496Z,98663.00
2019-02-03T16:58:45.315Z,98683.00
2019-02-03T17:01:15.433Z,98676.00
2019-02-03T17:03:45.434Z,98680.00
2019-02-03T17:06:15.166Z,98690.00
2019-02-03T17:08:45.195Z,98689.00
2019-02-03T17:11:15.224Z,98707.00
2019-02-03T17:13:45.148Z,98709.00
2019-02-03T17:16:15.643Z,98713.00
2019-02-03T17:18:45.962Z,98711.00
2019-02-03T17:21:15.868Z,98721.00
2019-02-03T17:23:45.964Z,98725.00
2019-02-03T17:26:16.049Z,98739.00
2019-02-03T17:28:46.409Z,98735.00
2019-02-03T17:31:16.545Z,98749.00
2019-02-03T17:33:47.562Z,98756.00
2019-02-03T17:36:17.750Z,98775.00
2019-02-03T17:38:47.537Z,98769.00
2019-02-03T17:41:17.841Z,98769.00
2019-02-03T17:43:48.096Z,98778.00
2019-02-03T17:46:18.089Z,98778.00
2019-02-03T17:48:48.080Z,98781.00
2019-02-03T17:51:17.738Z,98801.00
2019-02-03T17:53:48.592Z,98806.00
2019-02-03T17:56:18.712Z,98811.00
2019-02-03T17:58:48.505Z,98808.00
2019-02-03T18:01:18.694Z,98818.00
2019-02-03T18:03:48.741Z,98828.00
2019-02-03T18:06:19.076Z,98831.00
2019-02-03T18:08:49.700Z,98840.00
2019-02-03T18:11:19.981Z,98846.00
2019-02-03T18:13:50.080Z,98864.00
2019-02-03T18:16:21.349Z,98856.00
2019-02-03T18:18:51.225Z,98854.00
2019-02-03T18:21:21.218Z,98861.00
2019-02-03T18:23:51.231Z,98874.00
2019-02-03T18:26:21.491Z,98874.00
2019-02-03T18:28:52.103Z,98889.00
2019-02-03T18:31:21.808Z,98885.00
2019-02-03T18:33:51.819Z,98889.00
2019-02-03T18:36:21.523Z,98898.00
2019-02-03T18:38:51.673Z,98902.00
2019-02-03T18:41:21.571Z,98905.00
2019-02-03T18:43:51.590Z,98908.00
2019-02-03T18:46:21.228Z,98911.00
2019-02-03T18:48:51.427Z,98925.00
2019-02-03T18:51:21.215Z,98933.00
2019-02-03T18:53:51.525Z,98944.00
2019-02-03T18:56:21.982Z,98943.00
2019-02-03T18:58:53.178Z,98944.00
2019-02-03T19:01:23.280Z,98956.00
2019-02-03T19:03:53.396Z,98948.00
2019-02-03T19:06:23.625Z,98954.00
2019-02-03T19:08:53.732Z,98968.00
2019-02-03T19:11:23.547Z,98963.00
2019-02-03T19:13:53.590Z,98966.00
2019-02-03T19:16:24.062Z,98977.00
2019-02-03T19:18:54.003Z,98973.00
2019-02-03T19:21:24.316Z,98977.00
2019-02-03T19:23:54.326Z,98980.00
2019-02-03T19:26:24.139Z,98985.00
2019-02-03T19:28:55.419Z,98991.00
2019-02-03T19:31:25.187Z,98993.00
2019-02-03T19:33:55.152Z,99006.00
2019-02-03T19:36:24.976Z,99008.00
2019-02-03T19:39:23.278Z,99000.00
2019-02-03T19:41:53.108Z,99008.00
2019-02-03T19:44:22.948Z,99011.00
2019-02-03T19:46:53.801Z,99016.00
2019-02-03T19:49:23.499Z,99012.00
2019-02-03T19:51:53.476Z,99022.00
2019-02-03T19:54:23.343Z,99026.00
2019-02-03T19:56:53.264Z,99028.00
2019-02-03T19:59:24.143Z,99012.00
2019-02-03T20:01:54.195Z,99036.00
2019-02-03T20:04:24.314Z,99035.00
2019-02-03T20:06:54.235Z,99048.00
2019-02-03T20:09:24.232Z,99058.00
2019-02-03T20:11:54.289Z,99053.00
2019-02-03T20:14:27.377Z,99059.00
2019-02-03T20:16:57.280Z,99050.00
2019-02-03T20:19:27.083Z,99069.00
2019-02-03T20:21:59.550Z,99064.00
2019-02-03T20:24:29.790Z,99070.00
2019-02-03T20:26:59.847Z,99079.00
2019-02-03T20:29:29.616Z,99073.00
2019-02-03T20:31:59.748Z,99084.00
2019-02-03T20:34:29.838Z,99088.00
2019-02-03T20:36:59.992Z,99091.00
2019-02-03T20:39:30.905Z,99094.00
2019-02-03T20:42:01.242Z,99091.00
2019-02-03T20:44:31.335Z,99099.00
2019-02-03T20:47:01.340Z,99105.00
2019-02-03T20:49:31.882Z,99099.00
2019-02-03T20:52:02.135Z,99117.00
2019-02-03T20:54:32.374Z,99109.00
2019-02-03T20:57:02.089Z,99112.00
2019-02-03T20:59:32.191Z,99126.00
2019-02-03T21:02:02.024Z,99126.00
2019-02-03T21:04:32.014Z,99143.00
2019-02-03T21:07:01.846Z,99138.00
2019-02-03T21:09:31.631Z,99134.00
2019-02-03T21:12:02.220Z,99140.00
2019-02-03T21:14:32.097Z,99147.00
2019-02-03T21:17:02.945Z,99148.00
2019-02-03T21:19:32.978Z,99152.00
2019-02-03T21:22:03.163Z,99162.00
2019-02-03T21:24:33.822Z,99160.00
2019-02-03T21:27:03.407Z,99176.00
2019-02-03T21:29:34.142Z,99179.00
2019-02-03T21:32:03.950Z,99184.00
2019-02-03T21:34:33.762Z,99189.00
2019-02-03T21:37:03.752Z,99198.00
2019-02-03T21:39:33.623Z,99201.00
2019-02-03T21:42:03.179Z,99208.00
2019-02-03T21:44:32.928Z,99203.00
2019-02-03T21:47:02.741Z,99201.00
2019-02-03T21:49:32.863Z,99204.00
2019-02-03T21:52:03.341Z,99207.00
2019-02-03T21:54:33.173Z,99214.00
2019-02-03T21:57:03.214Z,99210.00
2019-02-03T21:59:33.066Z,99214.00
2019-02-03T22:02:03.512Z,99221.00
2019-02-03T22:04:33.403Z,99223.00
2019-02-03T22:07:03.159Z,99224.00
2019-02-03T22:09:33.101Z,99237.00
2019-02-03T22:12:03.550Z,99231.00
2019-02-03T22:14:33.428Z,99238.00
2019-02-03T22:17:03.226Z,99250.00
2019-02-03T22:19:32.832Z,99247.00
2019-02-03T22:22:03.129Z,99248.00
2019-02-03T22:24:32.797Z,99252.00
2019-02-03T22:27:02.406Z,99257.00
2019-02-03T22:29:31.955Z,99274.00
2019-02-03T22:32:01.938Z,99265.00
2019-02-03T22:34:31.932Z,99266.00
2019-02-03T22:37:01.663Z,99269.00
2019-02-03T22:39:31.681Z,99269.00
2019-02-03T22:42:02.796Z,99277.00
2019-02-03T22:44:32.856Z,99272.00
2019-02-03T22:47:02.654Z,99286.00
2019-02-03T22:49:33.222Z,99290.00
2019-02-03T22:52:03.071Z,99300.00
2019-02-03T22:54:32.699Z,99294.00
2019-02-03T22:57:02.413Z,99298.00
2019-02-03T22:59:32.422Z,99307.00
2019-02-03T23:02:01.891Z,99299.00
2019-02-03T23:04:34.479Z,99312.00
2019-02-03T23:07:05.648Z,99323.00
2019-02-03T23:09:35.256Z,99325.00
2019-02-03T23:12:06.766Z,99324.00
2019-02-03T23:14:36.518Z,99322.00
2019-02-03T23:17:06.631Z,99317.00
2019-02-03T23:19:36.346Z,99335.00
2019-02-03T23:22:05.927Z,99335.00
2019-02-03T23:24:36.912Z,99333.00
2019-02-03T23:27:06.819Z,99340.00
2019-02-03T23:29:36.866Z,99339.00
2019-02-03T23:32:07.071Z,99345.00
2019-02-03T23:34:36.874Z,99354.00
2019-02-03T23:37:06.845Z,99358.00
2019-02-03T23:39:36.613Z,99358.00
2019-02-03T23:42:07.797Z,99361.00
2019-02-03T23:44:37.470Z,99363.00
2019-02-03T23:47:07.277Z,99364.00
2019-02-03T23:49:37.090Z,99370.00
2019-02-03T23:52:06.742Z,99368.00
2019-02-03T23:54:36.311Z,99373.00
2019-02-03T23:57:06.456Z,99373.00
2019-02-03T23:59:36.468Z,99371.00
